Time;durP1;ratioP1;P1;durP2;ratioP2;P2;SDS_P1;SDS_P2;PMS_P1;PMS_P2;Temp;Humidity;BMP_temperature;BMP_pressure;BME280_temperature;BME280_humidity;BME280_pressure;Samples;Min_cycle;Max_cycle;Signal;HPM_P1;HPM_P2
2022/08/05 00:01:50;;;;;;;0.00;0.00;;;19.10;75.50;;;;;;5031799;28;20042;-70
2022/08/05 00:04:16;;;;;;;0.00;0.00;;;19.00;75.90;;;;;;5031027;28;20072;-71
2022/08/05 00:06:42;;;;;;;0.00;0.00;;;19.00;76.20;;;;;;5014015;28;20525;-71
2022/08/05 00:09:08;;;;;;;0.00;0.00;;;19.00;76.00;;;;;;5032316;28;20038;-70
2022/08/05 00:11:33;;;;;;;0.00;0.00;;;19.00;76.30;;;;;;5030505;28;20045;-70
2022/08/05 00:13:59;;;;;;;0.00;0.00;;;19.00;76.20;;;;;;5031973;28;20037;-70
2022/08/05 00:16:25;;;;;;;0.00;0.00;;;19.00;76.20;;;;;;5030363;28;20069;-70
2022/08/05 00:18:50;;;;;;;0.00;0.00;;;19.00;76.30;;;;;;5032004;28;20029;-70
2022/08/05 00:21:17;;;;;;;0.00;0.00;;;19.00;76.20;;;;;;5029943;28;20481;-70
2022/08/05 00:23:44;;;;;;;0.05;0.05;;;18.90;76.00;;;;;;5031668;28;20128;-70
2022/08/05 00:26:10;;;;;;;0.00;0.00;;;18.80;76.10;;;;;;5018655;28;20053;-71
2022/08/05 00:28:36;;;;;;;0.00;0.00;;;18.80;76.50;;;;;;5031916;28;20064;-70
2022/08/05 00:31:04;;;;;;;0.00;0.00;;;18.80;76.40;;;;;;5031602;28;20426;-70
2022/08/05 00:33:30;;;;;;;0.00;0.00;;;18.80;76.60;;;;;;5013767;28;20513;-70
2022/08/05 00:35:55;;;;;;;0.00;0.00;;;18.80;76.90;;;;;;5030013;28;20033;-70
2022/08/05 00:38:21;;;;;;;0.00;0.00;;;18.80;76.60;;;;;;5031344;28;20099;-70
2022/08/05 00:40:52;;;;;;;0.00;0.00;;;18.90;76.80;;;;;;5031362;28;20053;-70
2022/08/05 00:43:18;;;;;;;0.00;0.00;;;18.90;76.90;;;;;;5031401;28;20044;-70
2022/08/05 00:45:44;;;;;;;0.00;0.00;;;18.90;77.30;;;;;;5030622;28;20054;-71
2022/08/05 00:48:15;;;;;;;0.57;0.35;;;18.80;77.40;;;;;;5031853;28;20513;-69
2022/08/05 00:50:42;;;;;;;0.00;0.00;;;18.80;77.60;;;;;;5029787;28;20046;-68
2022/08/05 00:53:09;;;;;;;0.00;0.00;;;18.70;77.70;;;;;;5013421;28;20547;-69
2022/08/05 00:55:34;;;;;;;0.00;0.00;;;18.80;77.70;;;;;;5029054;28;20670;-68
2022/08/05 00:58:00;;;;;;;0.00;0.00;;;18.80;77.40;;;;;;5031080;28;20103;-68
2022/08/05 01:00:28;;;;;;;0.00;0.00;;;18.80;77.30;;;;;;5029693;28;20574;-68
2022/08/05 01:02:55;;;;;;;0.00;0.00;;;18.90;77.30;;;;;;5030810;28;20041;-69
2022/08/05 01:05:20;;;;;;;0.00;0.00;;;18.90;77.50;;;;;;5030067;28;20045;-68
2022/08/05 01:07:46;;;;;;;0.00;0.00;;;18.90;77.40;;;;;;5030361;28;20498;-69
2022/08/05 01:10:15;;;;;;;0.00;0.00;;;19.00;77.50;;;;;;5030175;28;20425;-69
2022/08/05 01:12:46;;;;;;;0.00;0.00;;;19.00;77.50;;;;;;5031086;28;20132;-69
2022/08/05 01:15:14;;;;;;;0.00;0.00;;;18.90;77.60;;;;;;5030507;28;20069;-69
2022/08/05 01:17:45;;;;;;;0.00;0.00;;;18.90;77.80;;;;;;5029453;28;20042;-69
2022/08/05 01:20:33;;;;;;;0.00;0.00;;;19.00;78.10;;;;;;5012294;28;20574;-70
2022/08/05 01:23:24;;;;;;;0.00;0.00;;;18.90;78.00;;;;;;5031117;28;20053;-70
2022/08/05 01:26:12;;;;;;;0.22;0.20;;;18.90;77.90;;;;;;5029232;28;20117;-70
2022/08/05 01:28:50;;;;;;;0.00;0.00;;;18.80;78.50;;;;;;5030202;28;20556;-70
2022/08/05 01:31:21;;;;;;;0.00;0.00;;;18.70;78.70;;;;;;5030119;28;20045;-70
2022/08/05 01:34:05;;;;;;;0.00;0.00;;;18.70;78.60;;;;;;5030392;28;20042;-70
2022/08/05 01:36:36;;;;;;;0.00;0.00;;;18.60;78.50;;;;;;5028646;28;20092;-70
2022/08/05 01:39:02;;;;;;;0.00;0.00;;;18.60;78.90;;;;;;5030308;28;20048;-70
2022/08/05 01:41:32;;;;;;;0.00;0.00;;;18.60;79.00;;;;;;5028906;28;20062;-70
2022/08/05 01:44:00;;;;;;;0.00;0.00;;;18.60;79.20;;;;;;5029941;28;20049;-70
2022/08/05 01:46:29;;;;;;;0.00;0.00;;;18.50;79.10;;;;;;5029320;28;20411;-70
2022/08/05 01:48:56;;;;;;;0.08;0.08;;;18.50;79.10;;;;;;5029676;28;20099;-70
2022/08/05 01:51:23;;;;;;;0.00;0.00;;;18.50;79.00;;;;;;5028999;28;20120;-69
2022/08/05 01:53:51;;;;;;;0.00;0.00;;;18.50;78.80;;;;;;5029724;28;20046;-70
2022/08/05 01:56:19;;;;;;;0.00;0.00;;;18.60;79.00;;;;;;5029590;28;20125;-70
2022/08/05 01:58:46;;;;;;;0.00;0.00;;;18.40;79.40;;;;;;5029679;28;20136;-70
2022/08/05 02:01:15;;;;;;;0.00;0.00;;;18.40;80.10;;;;;;5029438;28;20073;-69
2022/08/05 02:03:45;;;;;;;0.00;0.00;;;18.30;80.20;;;;;;5029269;28;20049;-70
2022/08/05 02:06:11;;;;;;;0.00;0.00;;;18.30;79.90;;;;;;5023113;28;20498;-70
2022/08/05 02:08:37;;;;;;;0.00;0.00;;;18.40;79.80;;;;;;5029422;28;20576;-70
2022/08/05 02:11:09;;;;;;;0.00;0.00;;;18.30;79.40;;;;;;5029393;28;20049;-70
2022/08/05 02:13:46;;;;;;;0.00;0.00;;;18.40;79.30;;;;;;5028093;28;20611;-70
2022/08/05 02:16:14;;;;;;;0.00;0.00;;;18.40;79.30;;;;;;5017989;28;20079;-70
2022/08/05 02:18:46;;;;;;;0.00;0.00;;;18.30;79.60;;;;;;5028977;28;20376;-70
2022/08/05 02:21:16;;;;;;;0.00;0.00;;;18.30;80.00;;;;;;5029177;28;20049;-70
2022/08/05 02:23:44;;;;;;;0.00;0.00;;;18.30;79.90;;;;;;5029624;28;20048;-70
2022/08/05 02:26:12;;;;;;;0.00;0.00;;;18.30;79.90;;;;;;5028592;28;20403;-70
2022/08/05 02:28:41;;;;;;;0.00;0.00;;;18.30;79.90;;;;;;5029157;28;20502;-70
2022/08/05 02:31:10;;;;;;;0.00;0.00;;;18.30;79.80;;;;;;5011161;28;20533;-70
2022/08/05 02:33:40;;;;;;;0.00;0.00;;;18.30;79.60;;;;;;5029087;28;20045;-70
2022/08/05 02:36:12;;;;;;;0.00;0.00;;;18.30;79.80;;;;;;5028170;28;20045;-70
2022/08/05 02:38:38;;;;;;;0.00;0.00;;;18.30;79.50;;;;;;5028220;28;20134;-70
2022/08/05 02:41:06;;;;;;;0.00;0.00;;;18.30;79.50;;;;;;5029027;28;20049;-69
2022/08/05 02:43:32;;;;;;;0.00;0.00;;;18.30;79.50;;;;;;5027554;28;20089;-70
2022/08/05 02:46:00;;;;;;;0.00;0.00;;;18.40;79.40;;;;;;5028152;28;20134;-70
2022/08/05 02:48:26;;;;;;;0.00;0.00;;;18.30;79.30;;;;;;5029157;28;20049;-70
2022/08/05 02:50:53;;;;;;;0.00;0.00;;;18.30;79.40;;;;;;5027922;28;20037;-70
2022/08/05 02:53:20;;;;;;;0.00;0.00;;;18.40;79.30;;;;;;5009942;28;20052;-70
2022/08/05 02:55:51;;;;;;;0.00;0.00;;;18.30;79.30;;;;;;5006288;28;20482;-70
2022/08/05 02:58:20;;;;;;;0.00;0.00;;;18.30;79.70;;;;;;5009026;28;20510;-70
2022/08/05 03:00:45;;;;;;;0.00;0.00;;;18.20;79.90;;;;;;5016342;28;20103;-70
2022/08/05 03:03:17;;;;;;;0.00;0.00;;;18.10;80.40;;;;;;5028293;28;20916;-70
2022/08/05 03:05:45;;;;;;;0.00;0.00;;;18.00;80.70;;;;;;5024622;28;20451;-70
2022/08/05 03:08:11;;;;;;;0.00;0.00;;;18.00;80.50;;;;;;5028774;28;20054;-70
2022/08/05 03:10:37;;;;;;;0.00;0.00;;;17.90;80.80;;;;;;5027954;28;20379;-70
2022/08/05 03:13:13;;;;;;;0.00;0.00;;;17.90;80.70;;;;;;5028645;28;20060;-71
2022/08/05 03:15:41;;;;;;;0.00;0.00;;;17.90;80.70;;;;;;5028967;28;20112;-71
2022/08/05 03:18:07;;;;;;;0.00;0.00;;;17.90;80.60;;;;;;5028120;28;20049;-71
2022/08/05 03:20:33;;;;;;;0.00;0.00;;;17.80;80.70;;;;;;5028601;28;20054;-71
2022/08/05 03:22:59;;;;;;;0.00;0.00;;;17.90;81.20;;;;;;5028283;28;20678;-71
2022/08/05 03:25:26;;;;;;;0.00;0.00;;;17.80;81.20;;;;;;5031603;28;20045;-71
2022/08/05 03:27:53;;;;;;;0.00;0.00;;;17.80;81.10;;;;;;5032610;28;20042;-71
2022/08/05 03:30:19;;;;;;;0.00;0.00;;;17.80;81.20;;;;;;5015268;28;20549;-71
2022/08/05 03:32:45;;;;;;;0.00;0.00;;;17.70;81.30;;;;;;5031907;28;20049;-71
2022/08/05 03:35:11;;;;;;;0.00;0.00;;;17.80;81.40;;;;;;5031586;28;20497;-71
2022/08/05 03:37:37;;;;;;;0.00;0.00;;;17.70;81.60;;;;;;5032277;28;20056;-71
2022/08/05 03:40:07;;;;;;;0.00;0.00;;;17.70;81.60;;;;;;5032434;28;20049;-71
2022/08/05 03:42:33;;;;;;;0.00;0.00;;;17.60;81.50;;;;;;5031061;28;20053;-71
2022/08/05 03:44:59;;;;;;;0.00;0.00;;;17.60;81.30;;;;;;5030877;28;20053;-71
2022/08/05 03:47:25;;;;;;;0.00;0.00;;;17.70;81.10;;;;;;5031688;28;20049;-70
2022/08/05 03:49:50;;;;;;;0.00;0.00;;;17.70;81.00;;;;;;5031167;28;20045;-71
2022/08/05 03:52:26;;;;;;;0.00;0.00;;;17.70;80.80;;;;;;5031434;28;20033;-71
2022/08/05 03:55:00;;;;;;;0.00;0.00;;;17.70;80.90;;;;;;5032379;28;20041;-68
2022/08/05 03:57:31;;;;;;;0.00;0.00;;;17.70;81.10;;;;;;5031108;28;20172;-69
2022/08/05 04:00:02;;;;;;;0.00;0.00;;;17.70;81.20;;;;;;5032316;28;20511;-69
2022/08/05 04:02:30;;;;;;;0.00;0.00;;;17.70;81.00;;;;;;5031048;28;20495;-69
2022/08/05 04:04:57;;;;;;;0.00;0.00;;;17.80;81.10;;;;;;5031471;28;20404;-69
2022/08/05 04:07:24;;;;;;;0.00;0.00;;;17.70;81.10;;;;;;5031219;28;20212;-69
2022/08/05 04:09:50;;;;;;;0.00;0.00;;;17.60;81.30;;;;;;5031633;28;20064;-69
2022/08/05 04:12:15;;;;;;;0.00;0.00;;;17.60;81.60;;;;;;5031580;28;20033;-69
2022/08/05 04:14:42;;;;;;;0.00;0.00;;;17.60;81.50;;;;;;5030997;28;20045;-69
2022/08/05 04:17:08;;;;;;;0.00;0.00;;;17.60;81.40;;;;;;5029810;28;20561;-69
2022/08/05 04:19:42;;;;;;;0.00;0.00;;;17.60;81.30;;;;;;5031251;28;20041;-69
2022/08/05 04:22:07;;;;;;;0.00;0.00;;;17.60;81.30;;;;;;5031588;28;20041;-69
2022/08/05 04:24:33;;;;;;;0.00;0.00;;;17.70;81.20;;;;;;5031536;28;20931;-69
2022/08/05 04:26:59;;;;;;;0.00;0.00;;;17.70;81.10;;;;;;5031018;28;20056;-69
2022/08/05 04:29:24;;;;;;;0.00;0.00;;;17.70;81.50;;;;;;5031102;28;20410;-69
2022/08/05 04:31:50;;;;;;;0.00;0.00;;;17.60;81.90;;;;;;5030549;28;20332;-69
2022/08/05 04:34:15;;;;;;;0.00;0.00;;;17.50;81.90;;;;;;5030914;28;20038;-69
2022/08/05 04:36:41;;;;;;;0.00;0.00;;;17.50;81.80;;;;;;5030132;28;20045;-69
2022/08/05 04:39:06;;;;;;;0.00;0.00;;;17.60;81.90;;;;;;5031392;28;20041;-69
2022/08/05 04:41:32;;;;;;;0.00;0.00;;;17.60;81.80;;;;;;5032152;28;20045;-69
2022/08/05 04:43:57;;;;;;;0.00;0.00;;;17.60;81.50;;;;;;5031820;28;20081;-69
2022/08/05 04:46:23;;;;;;;0.35;0.35;;;17.60;81.50;;;;;;5031334;28;20057;-69
2022/08/05 04:48:49;;;;;;;0.05;0.05;;;17.60;81.50;;;;;;5031690;28;20057;-68
2022/08/05 04:51:16;;;;;;;0.00;0.00;;;17.60;81.40;;;;;;5031621;28;20136;-69
2022/08/05 04:53:42;;;;;;;0.00;0.00;;;17.60;81.40;;;;;;5032051;28;20038;-69
2022/08/05 04:56:08;;;;;;;0.00;0.00;;;17.70;81.50;;;;;;5031653;28;20046;-69
2022/08/05 04:58:34;;;;;;;0.00;0.00;;;17.70;81.40;;;;;;5030694;28;20470;-69
2022/08/05 05:00:59;;;;;;;0.00;0.00;;;17.70;81.30;;;;;;5029728;28;20176;-69
2022/08/05 05:03:25;;;;;;;0.00;0.00;;;17.70;81.20;;;;;;5030889;28;20112;-69
2022/08/05 05:05:50;;;;;;;0.00;0.00;;;17.80;81.10;;;;;;5030747;28;20141;-69
2022/08/05 05:08:16;;;;;;;0.00;0.00;;;17.90;81.00;;;;;;5029458;28;20410;-69
2022/08/05 05:10:44;;;;;;;0.00;0.00;;;17.80;81.10;;;;;;5013045;28;20052;-68
2022/08/05 05:13:11;;;;;;;0.00;0.00;;;17.90;80.90;;;;;;5029082;28;20392;-69
2022/08/05 05:15:37;;;;;;;0.00;0.00;;;17.80;80.90;;;;;;5030490;28;20581;-69
2022/08/05 05:18:03;;;;;;;0.00;0.00;;;17.80;80.90;;;;;;5030731;28;20037;-69
2022/08/05 05:20:29;;;;;;;0.00;0.00;;;17.80;80.70;;;;;;5028322;28;20121;-69
2022/08/05 05:22:59;;;;;;;0.00;0.00;;;17.80;80.60;;;;;;5027105;28;20090;-71
2022/08/05 05:25:25;;;;;;;0.00;0.00;;;17.90;80.60;;;;;;5028439;28;20422;-70
2022/08/05 05:27:51;;;;;;;0.00;0.00;;;17.90;80.60;;;;;;5026906;28;20053;-69
2022/08/05 05:30:18;;;;;;;0.00;0.00;;;18.00;80.60;;;;;;5020507;28;20513;-69
2022/08/05 05:32:43;;;;;;;0.00;0.00;;;18.00;80.50;;;;;;5025173;28;20041;-69
2022/08/05 05:35:09;;;;;;;0.00;0.00;;;18.00;80.60;;;;;;5021855;28;20525;-69
2022/08/05 05:37:54;;;;;;;0.00;0.00;;;18.00;80.50;;;;;;5018407;28;20084;-69
2022/08/05 05:40:22;;;;;;;0.03;0.03;;;18.00;80.90;;;;;;5027504;28;20057;-69
2022/08/05 05:42:48;;;;;;;0.00;0.00;;;17.90;81.00;;;;;;5029857;28;20069;-70
2022/08/05 05:45:15;;;;;;;0.00;0.00;;;17.90;81.20;;;;;;5008305;28;20046;-70
2022/08/05 05:47:42;;;;;;;0.00;0.00;;;17.90;81.10;;;;;;5024332;28;20056;-71
2022/08/05 05:50:09;;;;;;;0.00;0.00;;;17.90;81.00;;;;;;5029197;28;20092;-71
2022/08/05 05:52:35;;;;;;;0.00;0.00;;;17.90;81.50;;;;;;5027681;28;20045;-71
2022/08/05 05:55:03;;;;;;;0.00;0.00;;;17.80;82.00;;;;;;5029071;28;20584;-71
2022/08/05 05:57:28;;;;;;;0.00;0.00;;;17.80;81.90;;;;;;5024739;28;20103;-69
2022/08/05 05:59:55;;;;;;;0.00;0.00;;;17.80;82.30;;;;;;5008109;28;20050;-70
2022/08/05 06:02:21;;;;;;;0.00;0.00;;;17.80;82.30;;;;;;5022422;28;20749;-71
2022/08/05 06:04:46;;;;;;;0.00;0.00;;;17.80;82.10;;;;;;5027703;28;20088;-68
2022/08/05 06:07:12;;;;;;;0.00;0.00;;;17.90;82.00;;;;;;5026638;28;20081;-69
2022/08/05 06:09:37;;;;;;;0.00;0.00;;;17.90;82.00;;;;;;5028528;28;20096;-69
2022/08/05 06:12:03;;;;;;;0.00;0.00;;;18.00;82.00;;;;;;5011857;28;20462;-69
2022/08/05 06:14:30;;;;;;;0.00;0.00;;;18.00;81.70;;;;;;5029130;28;20045;-71
2022/08/05 06:16:56;;;;;;;0.00;0.00;;;18.10;81.30;;;;;;5011481;28;20558;-71
2022/08/05 06:19:22;;;;;;;0.00;0.00;;;18.10;81.10;;;;;;5029167;28;20045;-71
2022/08/05 06:21:47;;;;;;;0.40;0.40;;;18.10;81.40;;;;;;5028371;28;20423;-71
2022/08/05 06:24:13;;;;;;;0.00;0.00;;;18.20;81.20;;;;;;5028620;28;20103;-71
2022/08/05 06:26:39;;;;;;;0.00;0.00;;;18.20;81.10;;;;;;5003017;28;20054;-71
2022/08/05 06:29:05;;;;;;;0.00;0.00;;;18.20;81.20;;;;;;5021300;28;20769;-69
2022/08/05 06:31:31;;;;;;;0.00;0.00;;;18.30;81.80;;;;;;5019840;28;20051;-69
2022/08/05 06:33:56;;;;;;;0.00;0.00;;;18.60;82.20;;;;;;5012280;28;20140;-69
2022/08/05 06:36:22;;;;;;;0.00;0.00;;;18.60;80.30;;;;;;5012366;28;20053;-69
2022/08/05 06:38:52;;;;;;;0.00;0.00;;;18.60;79.60;;;;;;5025391;28;20072;-70
2022/08/05 06:41:18;;;;;;;0.00;0.00;;;18.60;79.50;;;;;;5010048;28;20144;-69
2022/08/05 06:43:43;;;;;;;0.00;0.00;;;18.60;80.20;;;;;;5027103;28;20145;-70
2022/08/05 06:46:09;;;;;;;0.00;0.00;;;18.60;79.50;;;;;;5028559;28;20049;-69
2022/08/05 06:48:35;;;;;;;0.00;0.00;;;18.60;78.70;;;;;;5028779;28;20087;-69
2022/08/05 06:51:02;;;;;;;0.00;0.00;;;18.60;78.30;;;;;;5028112;28;20057;-70
2022/08/05 06:53:28;;;;;;;0.00;0.00;;;18.60;77.60;;;;;;5026162;28;20038;-73
2022/08/05 06:55:57;;;;;;;0.00;0.00;;;18.60;78.20;;;;;;5015146;28;20126;-70
2022/08/05 06:58:23;;;;;;;0.00;0.00;;;18.80;78.20;;;;;;5017295;28;20048;-68
2022/08/05 07:00:49;;;;;;;0.00;0.00;;;18.90;77.80;;;;;;5025143;28;20057;-69
2022/08/05 07:03:15;;;;;;;0.52;0.52;;;18.80;77.20;;;;;;5027116;28;20144;-68
2022/08/05 07:05:40;;;;;;;0.00;0.00;;;18.70;76.40;;;;;;5026914;28;20168;-68
2022/08/05 07:08:06;;;;;;;0.00;0.00;;;18.50;77.00;;;;;;5028275;28;20498;-69
2022/08/05 07:10:32;;;;;;;0.00;0.00;;;18.50;77.40;;;;;;5028252;28;20041;-70
2022/08/05 07:18:25;;;;;;;0.93;0.85;;;18.60;77.00;;;;;;5025445;28;20054;-74
2022/08/05 07:20:51;;;;;;;0.00;0.00;;;18.60;77.70;;;;;;5028350;28;20048;-70
2022/08/05 07:23:17;;;;;;;0.00;0.00;;;18.80;76.40;;;;;;5027857;28;20045;-71
2022/08/05 07:25:42;;;;;;;0.00;0.00;;;18.80;75.90;;;;;;5019911;28;20052;-70
2022/08/05 07:28:08;;;;;;;0.00;0.00;;;18.80;76.30;;;;;;5020320;28;20042;-69
2022/08/05 07:30:36;;;;;;;0.13;0.13;;;18.80;76.10;;;;;;5023528;28;20140;-70
2022/08/05 07:33:04;;;;;;;0.00;0.00;;;18.90;76.60;;;;;;5021943;28;20068;-69
2022/08/05 07:35:31;;;;;;;0.00;0.00;;;18.80;75.60;;;;;;5021340;28;20041;-70
2022/08/05 07:37:56;;;;;;;0.15;0.15;;;18.80;75.90;;;;;;5025103;28;20224;-69
2022/08/05 07:40:22;;;;;;;0.00;0.00;;;18.80;76.30;;;;;;5023752;28;20076;-70
2022/08/05 07:42:48;;;;;;;0.00;0.00;;;18.90;76.00;;;;;;5019747;28;20064;-70
2022/08/05 07:45:14;;;;;;;0.00;0.00;;;18.90;76.10;;;;;;5019987;28;20061;-70
2022/08/05 07:47:40;;;;;;;0.00;0.00;;;18.80;75.50;;;;;;5028174;28;20046;-70
2022/08/05 07:50:07;;;;;;;0.00;0.00;;;18.80;74.40;;;;;;5010414;28;20095;-70
2022/08/05 07:52:38;;;;;;;0.00;0.00;;;18.80;74.40;;;;;;5021356;28;20529;-70
2022/08/05 07:55:04;;;;;;;0.10;0.10;;;18.80;73.30;;;;;;4999237;28;20041;-69
2022/08/05 07:57:30;;;;;;;0.00;0.00;;;18.90;73.30;;;;;;5009141;28;20458;-69
2022/08/05 07:59:56;;;;;;;0.00;0.00;;;18.90;71.70;;;;;;5013071;28;20168;-69
2022/08/05 08:02:26;;;;;;;0.00;0.00;;;18.90;72.20;;;;;;5013660;28;20072;-70
2022/08/05 08:04:53;;;;;;;0.00;0.00;;;19.00;73.00;;;;;;5007528;28;20426;-67
2022/08/05 08:07:20;;;;;;;0.05;0.05;;;19.00;72.70;;;;;;5004069;28;20855;-69
2022/08/05 08:09:45;;;;;;;0.00;0.00;;;19.10;72.50;;;;;;5004958;28;20033;-68
2022/08/05 08:12:14;;;;;;;0.50;0.28;;;19.10;72.30;;;;;;5015692;28;20080;-68
2022/08/05 08:14:41;;;;;;;0.00;0.00;;;19.00;71.90;;;;;;5017963;28;21573;-69
2022/08/05 08:17:09;;;;;;;0.00;0.00;;;19.00;72.00;;;;;;5011718;28;20057;-68
2022/08/05 08:19:39;;;;;;;0.00;0.00;;;18.90;72.10;;;;;;5012104;28;20072;-68
2022/08/05 08:22:06;;;;;;;0.00;0.00;;;18.90;71.90;;;;;;5004098;28;20049;-69
2022/08/05 08:24:33;;;;;;;0.00;0.00;;;19.00;71.30;;;;;;5014676;28;20563;-68
2022/08/05 08:26:58;;;;;;;0.00;0.00;;;19.00;70.40;;;;;;5014237;28;21517;-70
2022/08/05 08:29:24;;;;;;;0.00;0.00;;;19.10;69.40;;;;;;5021834;28;20037;-69
2022/08/05 08:31:50;;;;;;;0.00;0.00;;;19.10;69.40;;;;;;5006710;28;20046;-68
2022/08/05 08:34:22;;;;;;;0.00;0.00;;;19.20;68.00;;;;;;5027718;28;20049;-68
2022/08/05 08:36:48;;;;;;;0.00;0.00;;;19.20;67.50;;;;;;5021740;28;20037;-68
2022/08/05 08:39:16;;;;;;;0.10;0.10;;;19.20;67.90;;;;;;5030119;28;20033;-70
2022/08/05 08:41:43;;;;;;;0.00;0.00;;;19.10;67.70;;;;;;5030933;28;20045;-68
2022/08/05 08:44:11;;;;;;;0.00;0.00;;;19.20;68.10;;;;;;5029501;28;20049;-68
2022/08/05 08:46:36;;;;;;;0.00;0.00;;;19.40;69.00;;;;;;5029982;28;20525;-68
2022/08/05 08:49:04;;;;;;;0.00;0.00;;;19.50;68.10;;;;;;5030563;28;20046;-69
2022/08/05 08:51:34;;;;;;;0.00;0.00;;;19.50;67.80;;;;;;5028740;28;20184;-69
2022/08/05 08:54:00;;;;;;;0.00;0.00;;;19.50;65.40;;;;;;5021109;28;20435;-68
2022/08/05 08:56:25;;;;;;;0.00;0.00;;;19.40;63.90;;;;;;5019971;28;20588;-68
2022/08/05 08:58:51;;;;;;;0.82;0.80;;;19.40;63.20;;;;;;5030927;28;20052;-68
2022/08/05 09:01:18;;;;;;;0.00;0.00;;;19.40;62.90;;;;;;5027260;28;20053;-70
2022/08/05 09:03:50;;;;;;;0.20;0.20;;;19.50;61.60;;;;;;5012908;28;20443;-69
2022/08/05 09:06:16;;;;;;;0.00;0.00;;;19.40;55.30;;;;;;5021658;28;20053;-69
2022/08/05 09:08:41;;;;;;;0.32;0.32;;;19.50;54.80;;;;;;5014630;28;20050;-70
2022/08/05 09:11:08;;;;;;;0.00;0.00;;;19.60;57.70;;;;;;5014074;28;20176;-69
2022/08/05 09:13:35;;;;;;;0.00;0.00;;;19.50;55.40;;;;;;5018576;28;20516;-70
2022/08/05 09:16:01;;;;;;;0.00;0.00;;;19.60;56.00;;;;;;5026812;28;20502;-68
2022/08/05 09:18:27;;;;;;;0.00;0.00;;;19.60;52.10;;;;;;5030318;28;20048;-68
2022/08/05 09:20:53;;;;;;;0.00;0.00;;;19.70;53.10;;;;;;5029166;28;20041;-69
2022/08/05 09:23:19;;;;;;;0.00;0.00;;;19.60;53.50;;;;;;5029720;28;20418;-69
2022/08/05 09:25:48;;;;;;;0.00;0.00;;;19.50;52.70;;;;;;5029382;28;20072;-69
2022/08/05 09:28:16;;;;;;;0.00;0.00;;;19.50;53.60;;;;;;5027495;28;20049;-69
2022/08/05 09:30:54;;;;;;;0.00;0.00;;;19.60;54.80;;;;;;5028236;28;20148;-69
2022/08/05 09:33:21;;;;;;;0.00;0.00;;;19.60;56.00;;;;;;5027313;28;20052;-69
2022/08/05 09:36:13;;;;;;;0.00;0.00;;;19.60;56.00;;;;;;5028269;28;20080;-68
2022/08/05 09:38:57;;;;;;;0.00;0.00;;;19.60;54.30;;;;;;5025835;28;20077;-69
2022/08/05 09:41:24;;;;;;;0.00;0.00;;;19.70;53.90;;;;;;5012060;28;20057;-68
2022/08/05 09:43:49;;;;;;;0.00;0.00;;;19.70;54.70;;;;;;5029068;28;20449;-69
2022/08/05 09:46:29;;;;;;;0.00;0.00;;;19.80;54.10;;;;;;5023033;28;20053;-67
2022/08/05 09:49:03;;;;;;;2.85;0.98;;;19.90;53.70;;;;;;5010006;28;20045;-68
2022/08/05 09:51:38;;;;;;;0.00;0.00;;;20.00;51.10;;;;;;5030472;28;20049;-69
2022/08/05 09:54:08;;;;;;;0.00;0.00;;;20.00;51.90;;;;;;5029141;28;20041;-68
2022/08/05 09:56:38;;;;;;;0.00;0.00;;;20.00;51.50;;;;;;5029149;28;20133;-70
2022/08/05 09:59:05;;;;;;;0.00;0.00;;;20.10;52.20;;;;;;5027096;28;20045;-69
2022/08/05 10:01:34;;;;;;;0.00;0.00;;;20.00;51.40;;;;;;5027828;28;20053;-69
2022/08/05 10:04:03;;;;;;;0.00;0.00;;;20.10;53.40;;;;;;5029695;28;20068;-68
2022/08/05 10:06:30;;;;;;;0.00;0.00;;;20.20;53.00;;;;;;5025878;28;20045;-68
2022/08/05 10:09:12;;;;;;;0.00;0.00;;;20.30;51.00;;;;;;5027090;28;20498;-68
2022/08/05 10:11:39;;;;;;;0.00;0.00;;;20.40;50.10;;;;;;5039665;28;20045;-67
2022/08/05 10:14:30;;;;;;;0.00;0.00;;;20.40;50.90;;;;;;5029927;28;20132;-68
2022/08/05 10:17:10;;;;;;;1.55;1.17;;;20.20;51.30;;;;;;5027760;28;20525;-69
2022/08/05 10:19:37;;;;;;;0.00;0.00;;;20.20;51.80;;;;;;5026818;28;20521;-68
2022/08/05 10:22:03;;;;;;;0.00;0.00;;;20.10;51.50;;;;;;5023412;28;20045;-69
2022/08/05 10:24:31;;;;;;;0.00;0.00;;;20.10;53.10;;;;;;5020343;28;20147;-69
2022/08/05 10:26:58;;;;;;;0.00;0.00;;;20.30;54.40;;;;;;5025518;28;20045;-68
2022/08/05 10:29:28;;;;;;;0.00;0.00;;;20.30;52.10;;;;;;5011191;28;20081;-68
2022/08/05 10:31:54;;;;;;;0.00;0.00;;;20.40;51.80;;;;;;5030261;28;20747;-68
2022/08/05 10:34:20;;;;;;;0.00;0.00;;;20.30;52.50;;;;;;5028831;28;20037;-68
2022/08/05 10:36:47;;;;;;;0.00;0.00;;;20.30;51.00;;;;;;5028180;28;20037;-68
2022/08/05 10:39:18;;;;;;;40.45;0.90;;;20.30;49.80;;;;;;5029283;28;20046;-68
2022/08/05 10:42:08;;;;;;;0.00;0.00;;;20.30;50.80;;;;;;5020922;28;20046;-68
2022/08/05 10:44:35;;;;;;;0.00;0.00;;;20.40;51.60;;;;;;5025972;28;20099;-69
2022/08/05 10:47:10;;;;;;;0.00;0.00;;;20.30;51.80;;;;;;5028983;28;20503;-68
2022/08/05 10:50:00;;;;;;;0.00;0.00;;;20.20;53.40;;;;;;5029187;28;20048;-68
2022/08/05 10:52:41;;;;;;;0.00;0.00;;;20.10;54.90;;;;;;5028723;28;20063;-69
2022/08/05 10:55:10;;;;;;;0.00;0.00;;;20.10;55.40;;;;;;5029668;28;20513;-68
2022/08/05 10:57:38;;;;;;;0.00;0.00;;;19.80;56.10;;;;;;5028596;28;20411;-68
2022/08/05 11:00:10;;;;;;;0.00;0.00;;;19.80;56.80;;;;;;5022726;28;20041;-70
2022/08/05 11:02:36;;;;;;;0.52;0.52;;;20.00;57.40;;;;;;5028183;28;20793;-69
2022/08/05 11:05:05;;;;;;;0.00;0.00;;;20.10;54.40;;;;;;5029098;28;20469;-69
2022/08/05 11:07:31;;;;;;;0.00;0.00;;;20.30;54.20;;;;;;5028383;28;20048;-68
2022/08/05 11:10:00;;;;;;;0.00;0.00;;;20.40;54.00;;;;;;5027405;28;20037;-69
2022/08/05 11:12:42;;;;;;;0.00;0.00;;;20.40;53.00;;;;;;5019618;28;20041;-68
2022/08/05 11:15:38;;;;;;;0.00;0.00;;;20.30;54.30;;;;;;5029021;28;20576;-68
2022/08/05 11:18:06;;;;;;;0.00;0.00;;;20.20;52.60;;;;;;5028745;28;20046;-70
2022/08/05 11:20:36;;;;;;;0.00;0.00;;;20.10;53.90;;;;;;5028762;28;20399;-68
2022/08/05 11:23:29;;;;;;;0.00;0.00;;;20.00;54.70;;;;;;5027861;28;20103;-68
2022/08/05 11:26:20;;;;;;;0.00;0.00;;;20.00;55.50;;;;;;5023116;28;20041;-67
2022/08/05 11:28:50;;;;;;;0.00;0.00;;;19.80;55.30;;;;;;5022781;28;20048;-68
2022/08/05 11:31:16;;;;;;;0.00;0.00;;;19.80;55.70;;;;;;5008986;28;20100;-68
2022/08/05 11:33:44;;;;;;;0.00;0.00;;;19.80;56.40;;;;;;5009012;28;20514;-66
2022/08/05 11:36:13;;;;;;;0.00;0.00;;;19.70;57.40;;;;;;5023570;28;20092;-69
2022/08/05 11:38:41;;;;;;;0.00;0.00;;;19.60;57.50;;;;;;5028199;28;20099;-68
2022/08/05 11:41:14;;;;;;;0.00;0.00;;;19.70;58.60;;;;;;5010091;28;20505;-68
2022/08/05 11:43:57;;;;;;;0.00;0.00;;;19.70;59.70;;;;;;5026881;28;20510;-67
2022/08/05 11:46:52;;;;;;;0.00;0.00;;;19.80;58.60;;;;;;5034769;28;20075;-67
2022/08/05 11:49:20;;;;;;;0.00;0.00;;;19.80;59.90;;;;;;5026411;28;20052;-67
2022/08/05 11:51:49;;;;;;;0.00;0.00;;;19.90;58.40;;;;;;5031397;28;20643;-67
2022/08/05 11:54:23;;;;;;;0.00;0.00;;;20.00;57.60;;;;;;5032200;28;20053;-67
2022/08/05 11:56:54;;;;;;;0.00;0.00;;;19.90;57.10;;;;;;5032002;28;20466;-67
2022/08/05 11:59:27;;;;;;;0.00;0.00;;;19.90;55.40;;;;;;5029978;28;20502;-68
2022/08/05 12:02:00;;;;;;;0.00;0.00;;;19.90;53.90;;;;;;5031168;28;20052;-68
2022/08/05 12:04:28;;;;;;;0.00;0.00;;;19.90;55.10;;;;;;5029789;28;20045;-67
2022/08/05 12:06:57;;;;;;;0.00;0.00;;;20.00;56.80;;;;;;5029378;28;20045;-69
2022/08/05 12:09:25;;;;;;;0.00;0.00;;;20.00;54.30;;;;;;5031016;28;20029;-68
2022/08/05 12:11:51;;;;;;;0.00;0.00;;;20.00;55.60;;;;;;5022411;28;20049;-69
2022/08/05 12:14:17;;;;;;;0.00;0.00;;;20.10;56.00;;;;;;5029109;28;20048;-67
2022/08/05 12:16:46;;;;;;;0.00;0.00;;;20.10;54.10;;;;;;5025245;28;20490;-67
2022/08/05 12:19:12;;;;;;;0.00;0.00;;;20.00;54.10;;;;;;5013310;28;20769;-68
2022/08/05 12:21:46;;;;;;;0.00;0.00;;;20.00;54.80;;;;;;5023534;28;20455;-68
2022/08/05 12:24:19;;;;;;;0.00;0.00;;;19.90;55.10;;;;;;5027671;28;20041;-68
2022/08/05 12:26:51;;;;;;;0.00;0.00;;;19.80;55.40;;;;;;5024323;28;20073;-68
2022/08/05 12:29:22;;;;;;;0.00;0.00;;;19.90;55.60;;;;;;5023076;28;20048;-68
2022/08/05 12:31:50;;;;;;;0.00;0.00;;;20.00;55.30;;;;;;5022180;28;20034;-67
2022/08/05 12:34:18;;;;;;;0.00;0.00;;;20.00;53.00;;;;;;5017465;28;20038;-68
2022/08/05 12:36:45;;;;;;;0.00;0.00;;;20.10;54.10;;;;;;5015871;28;20561;-67
2022/08/05 12:39:10;;;;;;;0.00;0.00;;;20.10;55.30;;;;;;5017143;28;20054;-68
2022/08/05 12:41:39;;;;;;;0.00;0.00;;;20.20;55.40;;;;;;5011882;28;20044;-68
2022/08/05 12:44:10;;;;;;;0.00;0.00;;;20.10;55.50;;;;;;5024690;28;20042;-67
2022/08/05 12:46:38;;;;;;;0.00;0.00;;;20.10;52.90;;;;;;5029368;28;20531;-67
2022/08/05 12:49:09;;;;;;;0.00;0.00;;;20.20;52.10;;;;;;5026635;28;20514;-69
2022/08/05 12:51:44;;;;;;;0.00;0.00;;;20.30;52.50;;;;;;5012233;28;20045;-68
2022/08/05 12:54:10;;;;;;;0.00;0.00;;;20.40;52.30;;;;;;5014844;28;20068;-68
2022/08/05 12:56:42;;;;;;;0.00;0.00;;;20.30;53.00;;;;;;5011200;28;20045;-68
2022/08/05 12:59:21;;;;;;;0.00;0.00;;;20.30;53.30;;;;;;5012751;28;20049;-68
2022/08/05 13:02:04;;;;;;;0.00;0.00;;;20.30;52.50;;;;;;5014429;28;20038;-68